Terminal Aerodrome Forecast
Issued by NWS

Home | Current Version | Previous Version | Text Only | Print | Product List | Glossary On
Versions: 1 2 3 4 5 6 7 8 9 10 11 12 13 14 15 16
000
FTUS45 KGJT 201120
TAFEGE
TAF
KEGE 201120Z 2012/2112 08004KT P6SM SCT050 BKN080
     FM201700 26005KT P6SM VCSH SCT060 BKN100
     FM201900 25010KT P6SM VCTS SCT060CB BKN100
     FM210100 09007KT P6SM FEW060 SCT100
     FM210400 12003KT P6SM FEW200
      AMD LTD TO CLD VIS AND WIND TIL 201400=

USA.gov is the U.S. government's official web portal to all federal, state and local government web resources and services.